sensor_id;sensor_type;location;lat;lon;timestamp;pressure;altitude;pressure_sealevel;temperature;humidity
79645;BME280;69117;47.148;18.954;2024-03-29T00:02:21;99572.53;;;7.50;100.00
79645;BME280;69117;47.148;18.954;2024-03-29T00:05:22;99591.03;;;7.58;100.00
79645;BME280;69117;47.148;18.954;2024-03-29T00:08:22;99597.16;;;7.49;100.00
79645;BME280;69117;47.148;18.954;2024-03-29T00:11:23;99603.94;;;7.51;100.00
79645;BME280;69117;47.148;18.954;2024-03-29T00:14:24;99608.78;;;7.46;100.00
79645;BME280;69117;47.148;18.954;2024-03-29T00:17:26;99611.16;;;7.40;100.00
79645;BME280;69117;47.148;18.954;2024-03-29T00:20:27;99642.41;;;7.43;100.00
79645;BME280;69117;47.148;18.954;2024-03-29T00:23:29;99636.28;;;7.52;100.00
79645;BME280;69117;47.148;18.954;2024-03-29T00:26:30;99645.56;;;7.46;100.00
79645;BME280;69117;47.148;18.954;2024-03-29T00:29:30;99661.88;;;7.50;100.00
79645;BME280;69117;47.148;18.954;2024-03-29T00:32:31;99676.00;;;7.49;100.00
79645;BME280;69117;47.148;18.954;2024-03-29T00:35:32;99681.66;;;7.54;100.00
79645;BME280;69117;47.148;18.954;2024-03-29T00:38:33;99689.28;;;7.57;100.00
79645;BME280;69117;47.148;18.954;2024-03-29T00:41:33;99695.47;;;7.66;100.00
79645;BME280;69117;47.148;18.954;2024-03-29T00:44:35;99684.94;;;7.75;100.00
79645;BME280;69117;47.148;18.954;2024-03-29T00:47:36;99709.66;;;7.83;100.00
79645;BME280;69117;47.148;18.954;2024-03-29T00:50:37;99703.59;;;7.82;100.00
79645;BME280;69117;47.148;18.954;2024-03-29T00:53:39;99711.47;;;7.82;100.00
79645;BME280;69117;47.148;18.954;2024-03-29T00:56:40;99729.72;;;7.84;100.00
79645;BME280;69117;47.148;18.954;2024-03-29T00:59:41;99717.31;;;7.76;100.00
79645;BME280;69117;47.148;18.954;2024-03-29T01:02:43;99708.22;;;7.61;100.00
79645;BME280;69117;47.148;18.954;2024-03-29T01:05:44;99704.63;;;7.52;100.00
79645;BME280;69117;47.148;18.954;2024-03-29T01:08:45;99712.38;;;7.44;100.00
79645;BME280;69117;47.148;18.954;2024-03-29T01:11:45;99717.09;;;7.30;100.00
79645;BME280;69117;47.148;18.954;2024-03-29T01:14:46;99723.19;;;7.21;100.00
79645;BME280;69117;47.148;18.954;2024-03-29T01:17:47;99723.03;;;6.94;100.00
79645;BME280;69117;47.148;18.954;2024-03-29T01:20:47;99742.50;;;6.81;100.00
79645;BME280;69117;47.148;18.954;2024-03-29T01:23:48;99747.69;;;6.62;100.00
79645;BME280;69117;47.148;18.954;2024-03-29T01:26:49;99761.75;;;6.51;100.00
79645;BME280;69117;47.148;18.954;2024-03-29T01:29:50;99753.91;;;6.61;100.00
79645;BME280;69117;47.148;18.954;2024-03-29T01:32:51;99752.13;;;6.71;100.00
79645;BME280;69117;47.148;18.954;2024-03-29T01:35:52;99763.16;;;6.65;100.00
79645;BME280;69117;47.148;18.954;2024-03-29T01:38:53;99768.91;;;6.39;100.00
79645;BME280;69117;47.148;18.954;2024-03-29T01:41:57;99771.94;;;6.14;100.00
79645;BME280;69117;47.148;18.954;2024-03-29T01:44:57;99778.75;;;5.95;100.00
79645;BME280;69117;47.148;18.954;2024-03-29T01:47:59;99780.00;;;5.80;100.00
79645;BME280;69117;47.148;18.954;2024-03-29T01:51:00;99786.41;;;5.66;100.00
79645;BME280;69117;47.148;18.954;2024-03-29T01:54:01;99792.72;;;5.64;100.00
79645;BME280;69117;47.148;18.954;2024-03-29T01:57:02;99792.31;;;5.47;100.00
79645;BME280;69117;47.148;18.954;2024-03-29T02:00:03;99804.72;;;5.45;100.00
79645;BME280;69117;47.148;18.954;2024-03-29T02:03:06;99810.38;;;5.30;100.00
79645;BME280;69117;47.148;18.954;2024-03-29T02:06:13;99824.13;;;5.43;100.00
79645;BME280;69117;47.148;18.954;2024-03-29T02:09:14;99831.53;;;5.70;100.00
79645;BME280;69117;47.148;18.954;2024-03-29T02:12:15;99833.44;;;6.00;100.00
79645;BME280;69117;47.148;18.954;2024-03-29T02:15:15;99826.31;;;5.91;100.00
79645;BME280;69117;47.148;18.954;2024-03-29T02:18:17;99843.72;;;5.81;100.00
79645;BME280;69117;47.148;18.954;2024-03-29T02:21:17;99855.81;;;5.72;100.00
79645;BME280;69117;47.148;18.954;2024-03-29T02:24:18;99862.09;;;5.48;100.00
79645;BME280;69117;47.148;18.954;2024-03-29T02:27:20;99871.06;;;5.35;100.00
79645;BME280;69117;47.148;18.954;2024-03-29T02:30:21;99878.00;;;5.24;100.00
79645;BME280;69117;47.148;18.954;2024-03-29T02:33:22;99874.91;;;5.08;100.00
79645;BME280;69117;47.148;18.954;2024-03-29T02:36:23;99874.13;;;4.96;100.00
79645;BME280;69117;47.148;18.954;2024-03-29T02:39:24;99869.47;;;4.89;100.00
79645;BME280;69117;47.148;18.954;2024-03-29T02:42:24;99860.19;;;4.85;100.00
79645;BME280;69117;47.148;18.954;2024-03-29T02:45:25;99863.38;;;4.66;100.00
79645;BME280;69117;47.148;18.954;2024-03-29T02:48:26;99871.25;;;4.66;100.00
79645;BME280;69117;47.148;18.954;2024-03-29T02:51:26;99886.13;;;4.76;100.00
79645;BME280;69117;47.148;18.954;2024-03-29T02:54:27;99899.53;;;4.72;100.00
79645;BME280;69117;47.148;18.954;2024-03-29T02:57:28;99910.47;;;4.66;100.00
79645;BME280;69117;47.148;18.954;2024-03-29T03:00:28;99901.41;;;5.26;100.00
79645;BME280;69117;47.148;18.954;2024-03-29T03:03:29;99919.03;;;5.35;100.00
79645;BME280;69117;47.148;18.954;2024-03-29T03:06:30;99927.59;;;5.48;100.00
79645;BME280;69117;47.148;18.954;2024-03-29T03:09:30;99931.09;;;5.70;100.00
79645;BME280;69117;47.148;18.954;2024-03-29T03:12:49;99944.91;;;5.72;100.00
79645;BME280;69117;47.148;18.954;2024-03-29T03:15:50;99948.63;;;5.69;100.00
79645;BME280;69117;47.148;18.954;2024-03-29T03:18:51;99953.72;;;5.71;100.00
79645;BME280;69117;47.148;18.954;2024-03-29T03:21:51;99956.22;;;5.72;100.00
79645;BME280;69117;47.148;18.954;2024-03-29T03:24:52;99963.47;;;5.80;100.00
79645;BME280;69117;47.148;18.954;2024-03-29T03:27:53;99970.38;;;5.81;100.00
79645;BME280;69117;47.148;18.954;2024-03-29T03:30:54;99971.31;;;5.80;100.00
79645;BME280;69117;47.148;18.954;2024-03-29T03:33:55;99967.16;;;5.78;100.00
79645;BME280;69117;47.148;18.954;2024-03-29T03:36:55;99975.38;;;5.84;100.00
79645;BME280;69117;47.148;18.954;2024-03-29T03:39:56;99978.13;;;5.83;100.00
79645;BME280;69117;47.148;18.954;2024-03-29T03:42:57;99981.19;;;5.88;100.00
79645;BME280;69117;47.148;18.954;2024-03-29T03:46:01;99964.91;;;5.84;100.00
79645;BME280;69117;47.148;18.954;2024-03-29T03:49:02;99982.53;;;5.93;100.00
79645;BME280;69117;47.148;18.954;2024-03-29T03:52:03;99979.41;;;5.88;100.00
79645;BME280;69117;47.148;18.954;2024-03-29T03:55:04;99986.56;;;5.86;100.00
79645;BME280;69117;47.148;18.954;2024-03-29T03:58:05;99988.97;;;5.78;100.00
79645;BME280;69117;47.148;18.954;2024-03-29T04:01:06;99971.97;;;5.72;100.00
79645;BME280;69117;47.148;18.954;2024-03-29T04:04:07;99981.84;;;5.69;100.00
79645;BME280;69117;47.148;18.954;2024-03-29T04:07:07;99973.28;;;5.56;100.00
79645;BME280;69117;47.148;18.954;2024-03-29T04:10:08;99987.25;;;5.22;100.00
79645;BME280;69117;47.148;18.954;2024-03-29T04:13:09;99972.84;;;4.94;100.00
79645;BME280;69117;47.148;18.954;2024-03-29T04:16:10;99982.78;;;4.78;100.00
79645;BME280;69117;47.148;18.954;2024-03-29T04:19:10;99989.91;;;4.65;100.00
79645;BME280;69117;47.148;18.954;2024-03-29T04:22:11;100002.50;;;4.48;100.00
79645;BME280;69117;47.148;18.954;2024-03-29T04:25:12;100001.94;;;4.32;100.00
79645;BME280;69117;47.148;18.954;2024-03-29T04:28:12;100004.53;;;4.21;100.00
79645;BME280;69117;47.148;18.954;2024-03-29T04:31:13;100010.31;;;4.13;100.00
79645;BME280;69117;47.148;18.954;2024-03-29T04:34:14;100023.97;;;4.17;100.00
79645;BME280;69117;47.148;18.954;2024-03-29T04:37:15;100028.06;;;4.21;100.00
79645;BME280;69117;47.148;18.954;2024-03-29T04:40:16;100024.25;;;4.25;100.00
79645;BME280;69117;47.148;18.954;2024-03-29T04:43:17;100034.94;;;4.22;100.00
79645;BME280;69117;47.148;18.954;2024-03-29T04:46:17;100041.84;;;4.23;100.00
79645;BME280;69117;47.148;18.954;2024-03-29T04:49:19;100062.53;;;4.26;100.00
79645;BME280;69117;47.148;18.954;2024-03-29T04:52:22;100069.75;;;4.22;100.00
79645;BME280;69117;47.148;18.954;2024-03-29T04:55:24;100068.72;;;4.25;100.00
79645;BME280;69117;47.148;18.954;2024-03-29T04:58:25;100059.91;;;4.26;100.00
79645;BME280;69117;47.148;18.954;2024-03-29T05:01:26;100081.34;;;4.55;100.00
79645;BME280;69117;47.148;18.954;2024-03-29T05:04:27;100078.03;;;4.64;100.00
79645;BME280;69117;47.148;18.954;2024-03-29T05:07:28;100077.41;;;4.85;100.00
79645;BME280;69117;47.148;18.954;2024-03-29T05:10:29;100075.91;;;5.16;100.00
79645;BME280;69117;47.148;18.954;2024-03-29T05:13:29;100084.84;;;5.24;100.00
79645;BME280;69117;47.148;18.954;2024-03-29T05:16:32;100097.63;;;5.51;100.00
79645;BME280;69117;47.148;18.954;2024-03-29T05:19:33;100103.44;;;5.78;100.00
79645;BME280;69117;47.148;18.954;2024-03-29T05:22:33;100100.00;;;5.88;100.00
79645;BME280;69117;47.148;18.954;2024-03-29T05:25:34;100092.59;;;6.05;100.00
79645;BME280;69117;47.148;18.954;2024-03-29T05:28:35;100104.00;;;6.26;100.00
79645;BME280;69117;47.148;18.954;2024-03-29T05:31:36;100095.84;;;6.40;100.00
79645;BME280;69117;47.148;18.954;2024-03-29T05:34:36;100103.19;;;6.58;100.00
79645;BME280;69117;47.148;18.954;2024-03-29T05:37:37;100107.09;;;6.75;100.00
79645;BME280;69117;47.148;18.954;2024-03-29T05:40:38;100115.59;;;6.88;100.00
79645;BME280;69117;47.148;18.954;2024-03-29T05:43:39;100105.06;;;6.99;100.00
79645;BME280;69117;47.148;18.954;2024-03-29T05:46:42;100113.31;;;7.16;100.00
79645;BME280;69117;47.148;18.954;2024-03-29T05:49:43;100114.53;;;7.32;100.00
79645;BME280;69117;47.148;18.954;2024-03-29T05:52:44;100125.13;;;7.52;100.00
79645;BME280;69117;47.148;18.954;2024-03-29T05:55:45;100124.41;;;7.71;100.00
79645;BME280;69117;47.148;18.954;2024-03-29T05:58:45;100116.44;;;7.92;100.00
79645;BME280;69117;47.148;18.954;2024-03-29T06:01:46;100120.53;;;8.06;100.00
79645;BME280;69117;47.148;18.954;2024-03-29T06:04:47;100130.41;;;8.23;100.00
79645;BME280;69117;47.148;18.954;2024-03-29T06:07:48;100145.56;;;8.40;100.00
79645;BME280;69117;47.148;18.954;2024-03-29T06:10:48;100148.47;;;8.47;100.00
79645;BME280;69117;47.148;18.954;2024-03-29T06:13:49;100157.13;;;8.68;100.00
79645;BME280;69117;47.148;18.954;2024-03-29T06:16:53;100149.50;;;8.94;100.00
79645;BME280;69117;47.148;18.954;2024-03-29T06:20:19;100153.91;;;9.13;100.00
79645;BME280;69117;47.148;18.954;2024-03-29T06:23:20;100147.09;;;9.30;100.00
79645;BME280;69117;47.148;18.954;2024-03-29T06:26:21;100150.94;;;9.55;100.00
79645;BME280;69117;47.148;18.954;2024-03-29T06:29:21;100147.47;;;9.92;100.00
79645;BME280;69117;47.148;18.954;2024-03-29T06:32:22;100144.53;;;10.05;100.00
79645;BME280;69117;47.148;18.954;2024-03-29T06:35:23;100149.97;;;10.21;100.00
79645;BME280;69117;47.148;18.954;2024-03-29T06:38:23;100137.78;;;10.48;100.00
79645;BME280;69117;47.148;18.954;2024-03-29T06:41:24;100145.78;;;10.56;100.00
79645;BME280;69117;47.148;18.954;2024-03-29T06:44:25;100150.47;;;10.62;100.00
79645;BME280;69117;47.148;18.954;2024-03-29T06:47:27;100161.13;;;10.88;100.00
79645;BME280;69117;47.148;18.954;2024-03-29T06:50:28;100158.94;;;10.84;100.00
79645;BME280;69117;47.148;18.954;2024-03-29T06:53:29;100170.25;;;11.12;100.00
79645;BME280;69117;47.148;18.954;2024-03-29T06:56:30;100169.91;;;11.33;100.00
79645;BME280;69117;47.148;18.954;2024-03-29T06:59:30;100171.44;;;11.35;100.00
79645;BME280;69117;47.148;18.954;2024-03-29T07:02:31;100166.31;;;11.16;100.00
79645;BME280;69117;47.148;18.954;2024-03-29T07:05:32;100166.44;;;11.58;100.00
79645;BME280;69117;47.148;18.954;2024-03-29T07:08:32;100173.56;;;11.58;100.00
79645;BME280;69117;47.148;18.954;2024-03-29T07:11:33;100176.44;;;11.90;100.00
79645;BME280;69117;47.148;18.954;2024-03-29T07:14:34;100181.72;;;12.25;100.00
79645;BME280;69117;47.148;18.954;2024-03-29T07:17:36;100191.88;;;12.37;100.00
79645;BME280;69117;47.148;18.954;2024-03-29T07:20:36;100203.81;;;12.42;100.00
79645;BME280;69117;47.148;18.954;2024-03-29T07:23:37;100201.66;;;12.45;100.00
79645;BME280;69117;47.148;18.954;2024-03-29T07:26:38;100205.72;;;12.66;100.00
79645;BME280;69117;47.148;18.954;2024-03-29T07:29:38;100202.25;;;12.73;100.00
79645;BME280;69117;47.148;18.954;2024-03-29T07:32:40;100198.63;;;12.82;100.00
79645;BME280;69117;47.148;18.954;2024-03-29T07:35:41;100199.31;;;13.09;100.00
79645;BME280;69117;47.148;18.954;2024-03-29T07:38:42;100204.69;;;13.25;100.00
79645;BME280;69117;47.148;18.954;2024-03-29T07:41:45;100199.97;;;13.03;100.00
79645;BME280;69117;47.148;18.954;2024-03-29T07:44:45;100202.66;;;13.52;100.00
79645;BME280;69117;47.148;18.954;2024-03-29T07:47:46;100205.63;;;13.73;100.00
79645;BME280;69117;47.148;18.954;2024-03-29T07:50:52;100211.31;;;13.38;100.00
79645;BME280;69117;47.148;18.954;2024-03-29T07:53:53;100207.00;;;13.45;100.00
79645;BME280;69117;47.148;18.954;2024-03-29T07:56:54;100218.25;;;13.31;100.00
79645;BME280;69117;47.148;18.954;2024-03-29T07:59:54;100213.78;;;13.47;100.00
79645;BME280;69117;47.148;18.954;2024-03-29T08:02:55;100215.94;;;13.60;100.00
79645;BME280;69117;47.148;18.954;2024-03-29T08:06:00;100202.66;;;13.52;100.00
79645;BME280;69117;47.148;18.954;2024-03-29T08:09:01;100219.81;;;14.13;100.00
79645;BME280;69117;47.148;18.954;2024-03-29T08:12:01;100209.66;;;14.25;100.00
79645;BME280;69117;47.148;18.954;2024-03-29T08:15:03;100214.59;;;13.81;100.00
79645;BME280;69117;47.148;18.954;2024-03-29T08:18:04;100216.50;;;14.11;100.00
79645;BME280;69117;47.148;18.954;2024-03-29T08:21:05;100226.34;;;14.50;100.00
79645;BME280;69117;47.148;18.954;2024-03-29T08:24:11;100220.81;;;14.60;100.00
79645;BME280;69117;47.148;18.954;2024-03-29T08:27:12;100219.75;;;14.77;100.00
79645;BME280;69117;47.148;18.954;2024-03-29T08:30:13;100225.00;;;14.85;100.00
79645;BME280;69117;47.148;18.954;2024-03-29T08:33:13;100226.34;;;14.58;100.00
79645;BME280;69117;47.148;18.954;2024-03-29T08:36:15;100236.31;;;14.56;100.00
79645;BME280;69117;47.148;18.954;2024-03-29T08:39:15;100238.97;;;14.40;100.00
79645;BME280;69117;47.148;18.954;2024-03-29T08:42:17;100233.47;;;14.89;100.00
79645;BME280;69117;47.148;18.954;2024-03-29T08:45:17;100232.22;;;14.29;100.00
79645;BME280;69117;47.148;18.954;2024-03-29T08:48:18;100227.72;;;14.30;100.00
79645;BME280;69117;47.148;18.954;2024-03-29T08:51:19;100220.16;;;14.10;100.00
79645;BME280;69117;47.148;18.954;2024-03-29T08:54:20;100229.94;;;14.10;100.00
79645;BME280;69117;47.148;18.954;2024-03-29T08:57:20;100216.69;;;15.11;100.00
79645;BME280;69117;47.148;18.954;2024-03-29T09:00:21;100211.88;;;14.84;100.00
79645;BME280;69117;47.148;18.954;2024-03-29T09:03:22;100229.50;;;15.31;100.00
79645;BME280;69117;47.148;18.954;2024-03-29T09:06:23;100216.47;;;15.59;100.00
79645;BME280;69117;47.148;18.954;2024-03-29T09:09:23;100204.88;;;15.52;100.00
79645;BME280;69117;47.148;18.954;2024-03-29T09:12:24;100198.47;;;15.99;100.00
79645;BME280;69117;47.148;18.954;2024-03-29T09:15:25;100202.31;;;16.11;100.00
79645;BME280;69117;47.148;18.954;2024-03-29T09:18:26;100183.75;;;16.03;100.00
79645;BME280;69117;47.148;18.954;2024-03-29T09:21:27;100205.72;;;16.05;100.00
79645;BME280;69117;47.148;18.954;2024-03-29T09:24:28;100202.50;;;15.80;100.00
79645;BME280;69117;47.148;18.954;2024-03-29T09:27:29;100193.66;;;15.94;100.00
79645;BME280;69117;47.148;18.954;2024-03-29T09:30:30;100181.53;;;15.39;100.00
79645;BME280;69117;47.148;18.954;2024-03-29T09:33:31;100180.16;;;16.11;100.00
79645;BME280;69117;47.148;18.954;2024-03-29T09:36:31;100186.69;;;15.93;100.00
79645;BME280;69117;47.148;18.954;2024-03-29T09:39:32;100174.94;;;15.88;100.00
79645;BME280;69117;47.148;18.954;2024-03-29T09:42:33;100165.91;;;16.18;100.00
79645;BME280;69117;47.148;18.954;2024-03-29T09:45:34;100179.59;;;16.30;100.00
79645;BME280;69117;47.148;18.954;2024-03-29T09:48:37;100178.59;;;16.31;100.00
79645;BME280;69117;47.148;18.954;2024-03-29T09:51:38;100173.13;;;16.39;100.00
79645;BME280;69117;47.148;18.954;2024-03-29T09:54:40;100175.16;;;16.52;100.00
79645;BME280;69117;47.148;18.954;2024-03-29T09:57:41;100163.16;;;16.63;100.00
79645;BME280;69117;47.148;18.954;2024-03-29T10:00:41;100162.78;;;16.30;100.00
79645;BME280;69117;47.148;18.954;2024-03-29T10:03:45;100161.25;;;16.57;100.00
79645;BME280;69117;47.148;18.954;2024-03-29T10:06:48;100151.28;;;16.65;100.00
79645;BME280;69117;47.148;18.954;2024-03-29T10:09:51;100155.94;;;17.21;100.00
79645;BME280;69117;47.148;18.954;2024-03-29T10:12:52;100149.16;;;17.18;100.00
79645;BME280;69117;47.148;18.954;2024-03-29T10:15:53;100148.03;;;17.91;100.00
79645;BME280;69117;47.148;18.954;2024-03-29T10:18:58;100154.50;;;17.75;100.00
79645;BME280;69117;47.148;18.954;2024-03-29T10:22:08;100139.34;;;18.23;100.00
79645;BME280;69117;47.148;18.954;2024-03-29T10:25:08;100136.97;;;18.48;100.00
79645;BME280;69117;47.148;18.954;2024-03-29T10:28:09;100137.59;;;18.57;100.00
79645;BME280;69117;47.148;18.954;2024-03-29T10:31:11;100136.69;;;18.30;100.00
79645;BME280;69117;47.148;18.954;2024-03-29T10:34:12;100139.44;;;17.95;100.00
79645;BME280;69117;47.148;18.954;2024-03-29T10:37:13;100128.66;;;18.98;100.00
79645;BME280;69117;47.148;18.954;2024-03-29T10:40:16;100124.69;;;19.60;100.00
79645;BME280;69117;47.148;18.954;2024-03-29T10:43:20;100109.69;;;19.06;100.00
79645;BME280;69117;47.148;18.954;2024-03-29T10:46:21;100117.72;;;19.33;100.00
79645;BME280;69117;47.148;18.954;2024-03-29T10:49:23;100104.31;;;19.53;100.00
79645;BME280;69117;47.148;18.954;2024-03-29T10:52:25;100097.75;;;19.29;100.00
79645;BME280;69117;47.148;18.954;2024-03-29T10:55:30;100093.41;;;19.14;100.00
79645;BME280;69117;47.148;18.954;2024-03-29T10:58:35;100085.53;;;19.59;100.00
79645;BME280;69117;47.148;18.954;2024-03-29T11:01:37;100069.50;;;19.46;100.00
79645;BME280;69117;47.148;18.954;2024-03-29T11:04:41;100061.25;;;18.61;100.00
79645;BME280;69117;47.148;18.954;2024-03-29T11:07:43;100068.88;;;19.44;100.00
79645;BME280;69117;47.148;18.954;2024-03-29T11:10:47;100058.25;;;19.89;100.00
79645;BME280;69117;47.148;18.954;2024-03-29T11:13:53;100050.88;;;19.71;100.00
79645;BME280;69117;47.148;18.954;2024-03-29T11:16:58;100041.13;;;18.79;100.00
79645;BME280;69117;47.148;18.954;2024-03-29T11:20:00;100040.78;;;19.73;100.00
79645;BME280;69117;47.148;18.954;2024-03-29T11:23:04;100035.69;;;19.52;100.00
79645;BME280;69117;47.148;18.954;2024-03-29T11:26:09;100040.50;;;20.65;100.00
79645;BME280;69117;47.148;18.954;2024-03-29T11:29:21;100032.66;;;20.31;100.00
79645;BME280;69117;47.148;18.954;2024-03-29T11:32:38;100017.41;;;19.87;100.00
79645;BME280;69117;47.148;18.954;2024-03-29T11:35:42;100022.53;;;19.95;100.00
79645;BME280;69117;47.148;18.954;2024-03-29T11:38:45;100017.22;;;19.88;100.00
79645;BME280;69117;47.148;18.954;2024-03-29T11:41:49;100001.03;;;21.34;100.00
79645;BME280;69117;47.148;18.954;2024-03-29T11:44:50;99995.50;;;21.65;100.00
79645;BME280;69117;47.148;18.954;2024-03-29T11:47:51;99982.38;;;20.77;100.00
79645;BME280;69117;47.148;18.954;2024-03-29T11:50:53;99996.53;;;21.09;100.00
79645;BME280;69117;47.148;18.954;2024-03-29T11:53:54;99988.16;;;21.17;100.00
79645;BME280;69117;47.148;18.954;2024-03-29T11:56:55;99994.78;;;20.96;100.00
79645;BME280;69117;47.148;18.954;2024-03-29T11:59:56;99996.91;;;20.88;100.00
79645;BME280;69117;47.148;18.954;2024-03-29T12:02:57;99988.75;;;21.19;100.00
79645;BME280;69117;47.148;18.954;2024-03-29T12:05:59;99988.31;;;22.08;100.00
79645;BME280;69117;47.148;18.954;2024-03-29T12:09:03;99973.34;;;22.66;93.12
79645;BME280;69117;47.148;18.954;2024-03-29T12:12:07;99989.19;;;23.85;93.68
79645;BME280;69117;47.148;18.954;2024-03-29T12:15:12;99985.84;;;22.25;95.65
79645;BME280;69117;47.148;18.954;2024-03-29T12:18:12;99979.56;;;21.27;100.00
79645;BME280;69117;47.148;18.954;2024-03-29T12:21:13;99985.66;;;21.41;100.00
79645;BME280;69117;47.148;18.954;2024-03-29T12:24:16;99991.16;;;20.84;100.00
79645;BME280;69117;47.148;18.954;2024-03-29T12:27:17;99984.50;;;20.68;100.00
79645;BME280;69117;47.148;18.954;2024-03-29T12:30:18;99970.31;;;20.61;100.00
79645;BME280;69117;47.148;18.954;2024-03-29T12:33:20;99970.06;;;20.38;100.00
79645;BME280;69117;47.148;18.954;2024-03-29T12:36:25;99985.19;;;20.64;100.00
79645;BME280;69117;47.148;18.954;2024-03-29T12:39:30;99974.50;;;20.50;100.00
79645;BME280;69117;47.148;18.954;2024-03-29T12:42:33;99964.19;;;20.47;100.00
79645;BME280;69117;47.148;18.954;2024-03-29T12:45:35;99968.44;;;20.36;100.00
79645;BME280;69117;47.148;18.954;2024-03-29T12:48:39;99966.50;;;20.12;100.00
79645;BME280;69117;47.148;18.954;2024-03-29T12:51:40;99961.63;;;20.02;100.00
79645;BME280;69117;47.148;18.954;2024-03-29T12:54:41;99967.06;;;20.21;100.00
79645;BME280;69117;47.148;18.954;2024-03-29T12:57:42;99972.81;;;20.31;100.00
79645;BME280;69117;47.148;18.954;2024-03-29T13:00:44;99974.44;;;20.32;100.00
79645;BME280;69117;47.148;18.954;2024-03-29T13:03:45;99965.19;;;19.96;100.00
79645;BME280;69117;47.148;18.954;2024-03-29T13:06:46;99964.03;;;19.79;100.00
79645;BME280;69117;47.148;18.954;2024-03-29T13:09:46;99951.16;;;19.49;100.00
79645;BME280;69117;47.148;18.954;2024-03-29T13:12:48;99957.69;;;19.66;100.00
79645;BME280;69117;47.148;18.954;2024-03-29T13:15:51;99957.47;;;19.75;100.00
79645;BME280;69117;47.148;18.954;2024-03-29T13:18:52;99955.13;;;19.92;100.00
79645;BME280;69117;47.148;18.954;2024-03-29T13:21:53;99960.53;;;19.85;100.00
79645;BME280;69117;47.148;18.954;2024-03-29T13:24:53;99943.59;;;19.84;100.00
79645;BME280;69117;47.148;18.954;2024-03-29T13:27:54;99956.69;;;19.99;100.00
79645;BME280;69117;47.148;18.954;2024-03-29T13:30:58;99948.28;;;20.27;100.00
79645;BME280;69117;47.148;18.954;2024-03-29T13:33:58;99950.59;;;20.49;100.00
79645;BME280;69117;47.148;18.954;2024-03-29T13:37:12;99958.22;;;20.45;100.00
79645;BME280;69117;47.148;18.954;2024-03-29T13:40:14;99952.34;;;20.36;100.00
79645;BME280;69117;47.148;18.954;2024-03-29T13:43:15;99951.59;;;20.23;100.00
79645;BME280;69117;47.148;18.954;2024-03-29T13:46:16;99940.22;;;19.96;100.00
79645;BME280;69117;47.148;18.954;2024-03-29T13:49:17;99943.66;;;19.71;100.00
79645;BME280;69117;47.148;18.954;2024-03-29T13:52:21;99934.25;;;19.55;100.00
79645;BME280;69117;47.148;18.954;2024-03-29T13:55:21;99940.59;;;19.61;100.00
79645;BME280;69117;47.148;18.954;2024-03-29T13:58:26;99940.44;;;19.49;100.00
79645;BME280;69117;47.148;18.954;2024-03-29T14:01:28;99939.25;;;19.38;100.00
79645;BME280;69117;47.148;18.954;2024-03-29T14:04:28;99954.03;;;19.48;100.00
79645;BME280;69117;47.148;18.954;2024-03-29T14:07:29;99951.59;;;19.46;100.00
79645;BME280;69117;47.148;18.954;2024-03-29T14:10:30;99955.69;;;19.55;100.00
79645;BME280;69117;47.148;18.954;2024-03-29T14:13:36;99947.50;;;19.88;100.00
79645;BME280;69117;47.148;18.954;2024-03-29T14:16:37;99950.84;;;20.09;100.00
79645;BME280;69117;47.148;18.954;2024-03-29T14:19:39;99946.78;;;20.00;100.00
79645;BME280;69117;47.148;18.954;2024-03-29T14:22:39;99950.19;;;19.88;100.00
79645;BME280;69117;47.148;18.954;2024-03-29T14:25:40;99953.97;;;19.74;100.00
79645;BME280;69117;47.148;18.954;2024-03-29T14:28:41;99950.22;;;19.75;100.00
79645;BME280;69117;47.148;18.954;2024-03-29T14:31:41;99947.94;;;19.79;100.00
79645;BME280;69117;47.148;18.954;2024-03-29T14:34:44;99951.63;;;19.84;100.00
79645;BME280;69117;47.148;18.954;2024-03-29T14:37:46;99943.34;;;19.93;100.00
79645;BME280;69117;47.148;18.954;2024-03-29T14:40:47;99939.44;;;19.88;100.00
79645;BME280;69117;47.148;18.954;2024-03-29T14:43:48;99942.84;;;20.02;100.00
79645;BME280;69117;47.148;18.954;2024-03-29T14:46:51;99939.25;;;20.90;100.00
79645;BME280;69117;47.148;18.954;2024-03-29T14:49:51;99926.06;;;21.07;100.00
79645;BME280;69117;47.148;18.954;2024-03-29T14:52:52;99931.38;;;20.95;100.00
79645;BME280;69117;47.148;18.954;2024-03-29T14:55:53;99914.59;;;21.00;100.00
79645;BME280;69117;47.148;18.954;2024-03-29T14:58:53;99909.88;;;21.14;100.00
79645;BME280;69117;47.148;18.954;2024-03-29T15:01:54;99911.50;;;21.15;100.00
79645;BME280;69117;47.148;18.954;2024-03-29T15:04:55;99910.41;;;21.04;100.00
79645;BME280;69117;47.148;18.954;2024-03-29T15:07:56;99893.75;;;20.77;100.00
79645;BME280;69117;47.148;18.954;2024-03-29T15:10:58;99886.75;;;20.51;100.00
79645;BME280;69117;47.148;18.954;2024-03-29T15:13:59;99888.84;;;20.24;100.00
79645;BME280;69117;47.148;18.954;2024-03-29T15:16:59;99871.13;;;19.98;100.00
79645;BME280;69117;47.148;18.954;2024-03-29T15:20:00;99891.66;;;19.79;100.00
79645;BME280;69117;47.148;18.954;2024-03-29T15:23:05;99895.84;;;19.68;100.00
79645;BME280;69117;47.148;18.954;2024-03-29T15:26:05;99883.91;;;19.57;100.00
79645;BME280;69117;47.148;18.954;2024-03-29T15:29:06;99886.66;;;19.44;100.00
79645;BME280;69117;47.148;18.954;2024-03-29T15:32:13;99885.91;;;19.30;100.00
79645;BME280;69117;47.148;18.954;2024-03-29T15:35:14;99887.19;;;19.21;100.00
79645;BME280;69117;47.148;18.954;2024-03-29T15:38:15;99871.25;;;19.33;100.00